Limestone, TN

8:13 PM EDT on June 03, 2015 (GMT -0400)
Leesburg Estates | | Change Station
CLOSE
Current Station
Personal Weather Station
Location: Telford, TN
Elevation: 1539 ft
Nearby Weather Stations

Elev 1539 ft 36.28 °N, 82.55 °W | Updated 3 minutes ago

Partly Cloudy
Partly Cloudy
73.8 °F
Feels Like 76 °F
N
2.5
Wind Variable Wind from SSE
Gusts 4.5 mph

Today
High -- | Low -- °F
--% Chance of Precip.
Yesterday
High -- | Low -- °F
Precip. -- in
6:13 AM 8:43 PM
Full, 98% visible
Pressure 29.95 in
Visibility 10.0 miles
Clouds Few 11000 ft
Few 25000 ft
Heat Index 76 °F
Dew Point 64 °F
Humidity 71%
Rainfall 0.14 in
Snow Depth Not available.
UV 0 out of 12
Pollen 4.00 out of 12
Air Quality Not available.
Flu Activity Sporadic
METAR KTRI 032353Z 00000KT 10SM FEW110 FEW250 23/15 A3002 RMK AO2 SLP142 TCU DSNT E TCU DSNT W 60000 T02330150 10250 20200 53003

More Conditions Fewer Conditions

Pressure 29.95 in
Visibility 10.0 miles
Clouds Few 11000 ft
Few 25000 ft
Heat Index 76 °F
Dew Point 64 °F
Humidity 71%
Rainfall 0.14 in
Snow Depth Not available.
UV 0 out of 12
Pollen 4.00 out of 12
Air Quality Not available.
Flu Activity Sporadic
METAR KTRI 032353Z 00000KT 10SM FEW110 FEW250 23/15 A3002 RMK AO2 SLP142 TCU DSNT E TCU DSNT W 60000 T02330150 10250 20200 53003

More Conditions Fewer Conditions

10-Day Weather Forecast

×

Almanac

Astronomy

Jun. 03, 2015 Rise Set
Actual Time
Civil Twilight
Nautical Twilight
Astronomical Twilight
Moon
Length of Visible Light
Length of Day
Tomorrow will be .
, % of the Moon is Illuminated

Today's Extremes

State Highs State Lows

Community

WunderPhotos

Upload Photos

1,826,310 photos uploaded!

WunderBlogs® & News

Nearby

Air Quality

  Air Quality AQ Index Pollutant
Not available.

Snow Depth

Station Depth Elevation

Earthquake Activity

City Distance Mag. Time & Date
Minimum magnitude displayed is 2.5.

Coastal Water Temperatures

Place Temperature

Stations

Nearby Weather Stations

Station Location Temp. Windchill Dew Point Humidity Wind Precip. Elev Updated Type